IGO6357 VOPB-VOBL
Flight info
| Callsign | IGO6357 |
|---|---|
| Flight time | 2h 7m |
| Altitude | 34000 |
| Route | LEGIN P761 MMV W117 XIVIL XIVIL7E |
| Aircraft | A21N/M-SDE2E3FGHIRWXY/LB1 |
Departure
| Time | 2026-05-07 10:42 |
|---|---|
| Airport | Veer Savarkar International Airport / INS Utkrosh (VOPB) |
Arrival
| Time | 2026-05-07 12:50 |
|---|---|
| Airport | Kempegowda International Airport Bengaluru (VOBL) |
| Time | Latitude | Longitude | Altitude | Speed | Heading |
|---|---|---|---|---|---|
| 2026-05-07 09:58 | 11.64867 | 92.73296 | 57 ft | 0 kts | 180° |
| 2026-05-07 10:37 | 11.64865 | 92.73296 | 57 ft | 1 kts | 179° |
| 2026-05-07 10:38 | 11.64842 | 92.73296 | 56 ft | 5 kts | 175° |
| 2026-05-07 10:38 | 11.64795 | 92.73298 | 55 ft | 7 kts | 185° |
| 2026-05-07 10:38 | 11.64742 | 92.73277 | 55 ft | 8 kts | 206° |
| 2026-05-07 10:38 | 11.64686 | 92.73304 | 53 ft | 11 kts | 132° |
| 2026-05-07 10:39 | 11.64671 | 92.73373 | 53 ft | 10 kts | 49° |
| 2026-05-07 10:39 | 11.64726 | 92.73418 | 56 ft | 10 kts | 37° |
| 2026-05-07 10:39 | 11.64788 | 92.73464 | 57 ft | 12 kts | 36° |
| 2026-05-07 10:39 | 11.64866 | 92.73525 | 60 ft | 15 kts | 37° |
| 2026-05-07 10:40 | 11.64964 | 92.73598 | 66 ft | 19 kts | 37° |
| 2026-05-07 10:40 | 11.65078 | 92.73686 | 74 ft | 20 kts | 36° |
| 2026-05-07 10:40 | 11.65173 | 92.73755 | 85 ft | 12 kts | 34° |
| 2026-05-07 10:40 | 11.65236 | 92.73792 | 92 ft | 9 kts | 17° |
| 2026-05-07 10:41 | 11.65295 | 92.73806 | 95 ft | 6 kts | 45° |
| 2026-05-07 10:41 | 11.65297 | 92.73817 | 97 ft | 0 kts | 87° |
| 2026-05-07 10:41 | 11.65294 | 92.73821 | 98 ft | 2 kts | 133° |
| 2026-05-07 10:41 | 11.65242 | 92.73805 | 94 ft | 13 kts | 214° |
| 2026-05-07 10:42 | 11.64990 | 92.73619 | 67 ft | 86 kts | 216° |
| 2026-05-07 10:42 | 11.64305 | 92.73097 | 42 ft | 156 kts | 216° |
| 2026-05-07 10:42 | 11.63329 | 92.72343 | 302 ft | 186 kts | 218° |
| 2026-05-07 10:42 | 11.62445 | 92.71435 | 1027 ft | 185 kts | 238° |
| 2026-05-07 10:43 | 11.62040 | 92.70224 | 1775 ft | 183 kts | 262° |
| 2026-05-07 10:43 | 11.62072 | 92.69218 | 2163 ft | 185 kts | 290° |
| 2026-05-07 10:43 | 11.63010 | 92.67937 | 2533 ft | 201 kts | 320° |
| 2026-05-07 10:43 | 11.64094 | 92.66936 | 2891 ft | 217 kts | 319° |
| 2026-05-07 10:44 | 11.65147 | 92.65951 | 3192 ft | 235 kts | 319° |
| 2026-05-07 10:44 | 11.66499 | 92.64687 | 3553 ft | 257 kts | 319° |
| 2026-05-07 10:44 | 11.67851 | 92.63425 | 4006 ft | 273 kts | 319° |
| 2026-05-07 10:44 | 11.69263 | 92.62110 | 4711 ft | 278 kts | 319° |
| 2026-05-07 10:45 | 11.70681 | 92.60792 | 5478 ft | 281 kts | 319° |
| 2026-05-07 10:45 | 11.72104 | 92.59407 | 6211 ft | 284 kts | 310° |
| 2026-05-07 10:45 | 11.72945 | 92.57587 | 6875 ft | 290 kts | 280° |
| 2026-05-07 10:45 | 11.73147 | 92.55568 | 7610 ft | 292 kts | 275° |
| 2026-05-07 10:46 | 11.73284 | 92.53493 | 8293 ft | 295 kts | 275° |
| 2026-05-07 10:46 | 11.73438 | 92.51413 | 8968 ft | 298 kts | 275° |
| 2026-05-07 10:46 | 11.73619 | 92.49286 | 9650 ft | 301 kts | 276° |
| 2026-05-07 10:46 | 11.73816 | 92.47173 | 10256 ft | 306 kts | 276° |
| 2026-05-07 10:47 | 11.74035 | 92.44949 | 10570 ft | 322 kts | 276° |
| 2026-05-07 10:47 | 11.74270 | 92.42625 | 10855 ft | 338 kts | 276° |
| 2026-05-07 10:47 | 11.74517 | 92.40203 | 11142 ft | 353 kts | 276° |
| 2026-05-07 10:47 | 11.74778 | 92.37661 | 11645 ft | 360 kts | 276° |
| 2026-05-07 10:48 | 11.75038 | 92.35137 | 12295 ft | 362 kts | 276° |
| 2026-05-07 10:48 | 11.75303 | 92.32583 | 12919 ft | 365 kts | 276° |
| 2026-05-07 10:48 | 11.75571 | 92.30013 | 13508 ft | 369 kts | 276° |
| 2026-05-07 10:48 | 11.75846 | 92.27382 | 14099 ft | 372 kts | 276° |
| 2026-05-07 10:49 | 11.76120 | 92.24768 | 14674 ft | 376 kts | 276° |
| 2026-05-07 10:49 | 11.76398 | 92.22113 | 15243 ft | 379 kts | 276° |
| 2026-05-07 10:49 | 11.76679 | 92.19433 | 15805 ft | 383 kts | 276° |
| 2026-05-07 10:49 | 11.76965 | 92.16705 | 16364 ft | 386 kts | 276° |
| 2026-05-07 10:50 | 11.77251 | 92.13975 | 16911 ft | 390 kts | 276° |
| 2026-05-07 10:50 | 11.77538 | 92.11225 | 17449 ft | 393 kts | 276° |
| 2026-05-07 10:50 | 11.77828 | 92.08449 | 17980 ft | 397 kts | 276° |
| 2026-05-07 10:50 | 11.78119 | 92.05669 | 18499 ft | 400 kts | 276° |
| 2026-05-07 10:51 | 11.78413 | 92.02846 | 19013 ft | 403 kts | 276° |
| 2026-05-07 10:51 | 11.78713 | 91.99970 | 19525 ft | 407 kts | 276° |
| 2026-05-07 10:51 | 11.79009 | 91.97120 | 20022 ft | 410 kts | 276° |
| 2026-05-07 10:51 | 11.79313 | 91.94198 | 20519 ft | 413 kts | 276° |
| 2026-05-07 10:52 | 11.79617 | 91.91282 | 21005 ft | 416 kts | 276° |
| 2026-05-07 10:52 | 11.79919 | 91.88367 | 21481 ft | 420 kts | 276° |
| 2026-05-07 10:52 | 11.80227 | 91.85400 | 21948 ft | 423 kts | 276° |
| 2026-05-07 10:52 | 11.80538 | 91.82398 | 22405 ft | 426 kts | 276° |
| 2026-05-07 10:53 | 11.80850 | 91.79381 | 22852 ft | 429 kts | 276° |
| 2026-05-07 10:53 | 11.81160 | 91.76388 | 23280 ft | 432 kts | 276° |
| 2026-05-07 10:53 | 11.81477 | 91.73311 | 23704 ft | 435 kts | 276° |
| 2026-05-07 10:53 | 11.81793 | 91.70257 | 24110 ft | 438 kts | 276° |
| 2026-05-07 10:54 | 11.82111 | 91.67165 | 24506 ft | 440 kts | 276° |
| 2026-05-07 10:54 | 11.82431 | 91.64063 | 24890 ft | 443 kts | 276° |
| 2026-05-07 10:54 | 11.82755 | 91.60915 | 25265 ft | 446 kts | 276° |
| 2026-05-07 10:54 | 11.83079 | 91.57761 | 25628 ft | 448 kts | 276° |
| 2026-05-07 10:55 | 11.83401 | 91.54620 | 25980 ft | 451 kts | 276° |
| 2026-05-07 10:55 | 11.83729 | 91.51421 | 26267 ft | 454 kts | 276° |
| 2026-05-07 10:55 | 11.84056 | 91.48226 | 26271 ft | 454 kts | 276° |
| 2026-05-07 10:55 | 11.84386 | 91.45011 | 26280 ft | 454 kts | 276° |
| 2026-05-07 10:56 | 11.84712 | 91.41835 | 26486 ft | 458 kts | 276° |
| 2026-05-07 10:56 | 11.85047 | 91.38577 | 26777 ft | 459 kts | 276° |
| 2026-05-07 10:56 | 11.85378 | 91.35353 | 26795 ft | 458 kts | 276° |
| 2026-05-07 10:56 | 11.85708 | 91.32126 | 26797 ft | 457 kts | 276° |
| 2026-05-07 10:57 | 11.86031 | 91.28946 | 26798 ft | 457 kts | 276° |
| 2026-05-07 10:57 | 11.86348 | 91.25684 | 26890 ft | 461 kts | 275° |
| 2026-05-07 10:57 | 11.86657 | 91.22448 | 27236 ft | 462 kts | 275° |
| 2026-05-07 10:57 | 11.86968 | 91.19201 | 27594 ft | 462 kts | 275° |
| 2026-05-07 10:58 | 11.87280 | 91.15945 | 27908 ft | 464 kts | 275° |
| 2026-05-07 10:58 | 11.87592 | 91.12701 | 28225 ft | 465 kts | 275° |
| 2026-05-07 10:58 | 11.87912 | 91.09372 | 28554 ft | 466 kts | 275° |
| 2026-05-07 10:58 | 11.88226 | 91.06104 | 28870 ft | 467 kts | 276° |
| 2026-05-07 10:59 | 11.88545 | 91.02795 | 29182 ft | 467 kts | 276° |
| 2026-05-07 10:59 | 11.88859 | 90.99525 | 29483 ft | 468 kts | 276° |
| 2026-05-07 10:59 | 11.89179 | 90.96195 | 29784 ft | 468 kts | 276° |
| 2026-05-07 10:59 | 11.89494 | 90.92915 | 30066 ft | 468 kts | 276° |
| 2026-05-07 11:00 | 11.89811 | 90.89613 | 30310 ft | 470 kts | 276° |
| 2026-05-07 11:00 | 11.90128 | 90.86311 | 30532 ft | 471 kts | 276° |
| 2026-05-07 11:00 | 11.90448 | 90.82963 | 30746 ft | 473 kts | 276° |
| 2026-05-07 11:00 | 11.90766 | 90.79645 | 31076 ft | 471 kts | 276° |
| 2026-05-07 11:01 | 11.91080 | 90.76359 | 31460 ft | 468 kts | 276° |
| 2026-05-07 11:01 | 11.91394 | 90.73069 | 31709 ft | 469 kts | 276° |
| 2026-05-07 11:01 | 11.91711 | 90.69753 | 31899 ft | 470 kts | 276° |
| 2026-05-07 11:01 | 11.92030 | 90.66395 | 32077 ft | 471 kts | 276° |
| 2026-05-07 11:02 | 11.92342 | 90.63097 | 32245 ft | 473 kts | 276° |
| 2026-05-07 11:02 | 11.92657 | 90.59771 | 32405 ft | 474 kts | 276° |
| 2026-05-07 11:02 | 11.92976 | 90.56402 | 32591 ft | 474 kts | 276° |
| 2026-05-07 11:02 | 11.93289 | 90.53087 | 32809 ft | 473 kts | 276° |
| 2026-05-07 11:03 | 11.93604 | 90.49757 | 33029 ft | 473 kts | 276° |
| 2026-05-07 11:03 | 11.93918 | 90.46423 | 33238 ft | 472 kts | 276° |
| 2026-05-07 11:03 | 11.94234 | 90.43081 | 33440 ft | 471 kts | 276° |
| 2026-05-07 11:03 | 11.94544 | 90.39790 | 33629 ft | 471 kts | 276° |
| 2026-05-07 11:04 | 11.94859 | 90.36452 | 33764 ft | 471 kts | 276° |
| 2026-05-07 11:04 | 11.95172 | 90.33118 | 33769 ft | 471 kts | 275° |
| 2026-05-07 11:04 | 11.95795 | 90.26495 | 33774 ft | 470 kts | 275° |
| 2026-05-07 11:05 | 11.96417 | 90.19842 | 33774 ft | 470 kts | 275° |
| 2026-05-07 11:05 | 11.97026 | 90.13317 | 33775 ft | 470 kts | 275° |
| 2026-05-07 11:06 | 11.97644 | 90.06677 | 33775 ft | 470 kts | 275° |
| 2026-05-07 11:06 | 11.98260 | 90.00039 | 33775 ft | 470 kts | 275° |
| 2026-05-07 11:07 | 11.98875 | 89.93394 | 33775 ft | 470 kts | 275° |
| 2026-05-07 11:07 | 11.99488 | 89.86762 | 33775 ft | 470 kts | 275° |
| 2026-05-07 11:08 | 12.00098 | 89.80134 | 33775 ft | 470 kts | 275° |
| 2026-05-07 11:08 | 12.00706 | 89.73517 | 33775 ft | 470 kts | 275° |
| 2026-05-07 11:09 | 12.01313 | 89.66894 | 33775 ft | 470 kts | 275° |
| 2026-05-07 11:09 | 12.01920 | 89.60252 | 33775 ft | 470 kts | 275° |
| 2026-05-07 11:10 | 12.02523 | 89.53636 | 33775 ft | 470 kts | 275° |
| 2026-05-07 11:10 | 12.03125 | 89.47014 | 33775 ft | 470 kts | 275° |
| 2026-05-07 11:11 | 12.03726 | 89.40382 | 33774 ft | 470 kts | 275° |
| 2026-05-07 11:11 | 12.04326 | 89.33752 | 33774 ft | 470 kts | 275° |
| 2026-05-07 11:12 | 12.04926 | 89.27096 | 33775 ft | 470 kts | 275° |
| 2026-05-07 11:12 | 12.05518 | 89.20516 | 33775 ft | 470 kts | 275° |
| 2026-05-07 11:13 | 12.06118 | 89.13856 | 33775 ft | 470 kts | 275° |
| 2026-05-07 11:13 | 12.06713 | 89.07244 | 33775 ft | 470 kts | 275° |
| 2026-05-07 11:14 | 12.07307 | 89.00611 | 33774 ft | 470 kts | 275° |
| 2026-05-07 11:14 | 12.07898 | 88.93981 | 33774 ft | 471 kts | 275° |
| 2026-05-07 11:15 | 12.08491 | 88.87325 | 33774 ft | 473 kts | 275° |
| 2026-05-07 11:15 | 12.09089 | 88.80615 | 33774 ft | 475 kts | 275° |
| 2026-05-07 11:16 | 12.09685 | 88.73908 | 33774 ft | 476 kts | 275° |
| 2026-05-07 11:16 | 12.10296 | 88.67199 | 33775 ft | 476 kts | 276° |
| 2026-05-07 11:17 | 12.11074 | 88.60519 | 33775 ft | 475 kts | 277° |
| 2026-05-07 11:17 | 12.11880 | 88.53831 | 33775 ft | 475 kts | 277° |
| 2026-05-07 11:18 | 12.12677 | 88.47125 | 33775 ft | 475 kts | 277° |
| 2026-05-07 11:18 | 12.13464 | 88.40446 | 33784 ft | 475 kts | 277° |
| 2026-05-07 11:19 | 12.14250 | 88.33746 | 33792 ft | 475 kts | 277° |
| 2026-05-07 11:19 | 12.15030 | 88.27068 | 33796 ft | 475 kts | 277° |
| 2026-05-07 11:20 | 12.15809 | 88.20398 | 33799 ft | 475 kts | 277° |
| 2026-05-07 11:20 | 12.16588 | 88.13719 | 33799 ft | 475 kts | 277° |
| 2026-05-07 11:21 | 12.17367 | 88.07022 | 33800 ft | 475 kts | 277° |
| 2026-05-07 11:21 | 12.18145 | 88.00320 | 33800 ft | 475 kts | 277° |
| 2026-05-07 11:22 | 12.18918 | 87.93636 | 33800 ft | 475 kts | 277° |
| 2026-05-07 11:22 | 12.19686 | 87.86980 | 33800 ft | 475 kts | 277° |
| 2026-05-07 11:23 | 12.20459 | 87.80271 | 33800 ft | 475 kts | 277° |
| 2026-05-07 11:23 | 12.21227 | 87.73585 | 33800 ft | 475 kts | 277° |
| 2026-05-07 11:24 | 12.21991 | 87.66927 | 33800 ft | 475 kts | 277° |
| 2026-05-07 11:24 | 12.22757 | 87.60232 | 33800 ft | 474 kts | 277° |
| 2026-05-07 11:25 | 12.23519 | 87.53555 | 33800 ft | 474 kts | 277° |
| 2026-05-07 11:25 | 12.24278 | 87.46890 | 33800 ft | 474 kts | 277° |
| 2026-05-07 11:26 | 12.25038 | 87.40207 | 33800 ft | 474 kts | 277° |
| 2026-05-07 11:26 | 12.25794 | 87.33530 | 33799 ft | 474 kts | 277° |
| 2026-05-07 11:27 | 12.26553 | 87.26816 | 33799 ft | 474 kts | 277° |
| 2026-05-07 11:27 | 12.27302 | 87.20174 | 33800 ft | 474 kts | 277° |
| 2026-05-07 11:28 | 12.28055 | 87.13489 | 33800 ft | 474 kts | 277° |
| 2026-05-07 11:28 | 12.28805 | 87.06813 | 33800 ft | 474 kts | 277° |
| 2026-05-07 11:29 | 12.29557 | 87.00102 | 33800 ft | 474 kts | 277° |
| 2026-05-07 11:29 | 12.30304 | 86.93424 | 33800 ft | 473 kts | 277° |
| 2026-05-07 11:30 | 12.31048 | 86.86764 | 33800 ft | 473 kts | 277° |
| 2026-05-07 11:30 | 12.31788 | 86.80125 | 33800 ft | 473 kts | 277° |
| 2026-05-07 11:31 | 12.32533 | 86.73434 | 33800 ft | 473 kts | 277° |
| 2026-05-07 11:31 | 12.33273 | 86.66769 | 33800 ft | 473 kts | 277° |
| 2026-05-07 11:32 | 12.34378 | 86.56782 | 33800 ft | 473 kts | 277° |
| 2026-05-07 11:33 | 12.35112 | 86.50127 | 33800 ft | 473 kts | 277° |
| 2026-05-07 11:33 | 12.35842 | 86.43490 | 33799 ft | 473 kts | 277° |
| 2026-05-07 11:34 | 12.36574 | 86.36831 | 33791 ft | 473 kts | 277° |
| 2026-05-07 11:34 | 12.37305 | 86.30158 | 33782 ft | 473 kts | 277° |
| 2026-05-07 11:35 | 12.38034 | 86.23481 | 33778 ft | 473 kts | 277° |
| 2026-05-07 11:35 | 12.38761 | 86.16811 | 33775 ft | 473 kts | 277° |
| 2026-05-07 11:36 | 12.39483 | 86.10172 | 33775 ft | 473 kts | 277° |
| 2026-05-07 11:36 | 12.40209 | 86.03477 | 33775 ft | 473 kts | 277° |
| 2026-05-07 11:37 | 12.40927 | 85.96841 | 33775 ft | 473 kts | 277° |
| 2026-05-07 11:37 | 12.41652 | 85.90138 | 33775 ft | 473 kts | 277° |
| 2026-05-07 11:38 | 12.42373 | 85.83451 | 33775 ft | 472 kts | 277° |
| 2026-05-07 11:38 | 12.43085 | 85.76820 | 33775 ft | 472 kts | 277° |
| 2026-05-07 11:39 | 12.43798 | 85.70158 | 33775 ft | 472 kts | 277° |
| 2026-05-07 11:39 | 12.44513 | 85.63477 | 33775 ft | 472 kts | 277° |
| 2026-05-07 11:40 | 12.45224 | 85.56818 | 33775 ft | 472 kts | 277° |
| 2026-05-07 11:40 | 12.45936 | 85.50141 | 33775 ft | 472 kts | 277° |
| 2026-05-07 11:41 | 12.46643 | 85.43491 | 33775 ft | 472 kts | 277° |
| 2026-05-07 11:41 | 12.47352 | 85.36802 | 33775 ft | 472 kts | 277° |
| 2026-05-07 11:42 | 12.48053 | 85.30176 | 33774 ft | 472 kts | 277° |
| 2026-05-07 11:42 | 12.48757 | 85.23508 | 33775 ft | 472 kts | 277° |
| 2026-05-07 11:43 | 12.49459 | 85.16846 | 33774 ft | 472 kts | 277° |
| 2026-05-07 11:43 | 12.50159 | 85.10182 | 33774 ft | 473 kts | 277° |
| 2026-05-07 11:44 | 12.50859 | 85.03500 | 33774 ft | 474 kts | 277° |
| 2026-05-07 11:44 | 12.51560 | 84.96796 | 33774 ft | 475 kts | 277° |
| 2026-05-07 11:45 | 12.52259 | 84.90093 | 33775 ft | 476 kts | 277° |
| 2026-05-07 11:45 | 12.52962 | 84.83343 | 33775 ft | 476 kts | 277° |
| 2026-05-07 11:46 | 12.53657 | 84.76643 | 33775 ft | 476 kts | 277° |
| 2026-05-07 11:46 | 12.54352 | 84.69936 | 33775 ft | 476 kts | 277° |
| 2026-05-07 11:47 | 12.55045 | 84.63226 | 33775 ft | 476 kts | 277° |
| 2026-05-07 11:47 | 12.55741 | 84.56467 | 33775 ft | 476 kts | 277° |
| 2026-05-07 11:48 | 12.56431 | 84.49753 | 33775 ft | 476 kts | 277° |
| 2026-05-07 11:48 | 12.57118 | 84.43062 | 33775 ft | 476 kts | 277° |
| 2026-05-07 11:49 | 12.57807 | 84.36321 | 33768 ft | 475 kts | 277° |
| 2026-05-07 11:49 | 12.58493 | 84.29609 | 33756 ft | 475 kts | 277° |
| 2026-05-07 11:50 | 12.59175 | 84.22898 | 33750 ft | 475 kts | 277° |
| 2026-05-07 11:50 | 12.59854 | 84.16215 | 33747 ft | 475 kts | 277° |
| 2026-05-07 11:51 | 12.60534 | 84.09497 | 33746 ft | 475 kts | 277° |
| 2026-05-07 11:51 | 12.61212 | 84.02785 | 33746 ft | 475 kts | 277° |
| 2026-05-07 11:52 | 12.61888 | 83.96084 | 33746 ft | 475 kts | 277° |
| 2026-05-07 11:52 | 12.62568 | 83.89328 | 33746 ft | 475 kts | 277° |
| 2026-05-07 11:53 | 12.63240 | 83.82637 | 33746 ft | 475 kts | 277° |
| 2026-05-07 11:53 | 12.63915 | 83.75912 | 33746 ft | 475 kts | 277° |
| 2026-05-07 11:54 | 12.64586 | 83.69210 | 33746 ft | 475 kts | 277° |
| 2026-05-07 11:54 | 12.65257 | 83.62515 | 33746 ft | 475 kts | 277° |
| 2026-05-07 11:55 | 12.65920 | 83.55861 | 33746 ft | 475 kts | 277° |
| 2026-05-07 11:55 | 12.66596 | 83.49119 | 33746 ft | 475 kts | 277° |
| 2026-05-07 11:56 | 12.67277 | 83.42429 | 33746 ft | 475 kts | 277° |
| 2026-05-07 11:56 | 12.67960 | 83.35738 | 33746 ft | 475 kts | 277° |
| 2026-05-07 11:57 | 12.68646 | 83.29005 | 33746 ft | 475 kts | 277° |
| 2026-05-07 11:57 | 12.69329 | 83.22299 | 33746 ft | 475 kts | 277° |
| 2026-05-07 11:58 | 12.70011 | 83.15585 | 33746 ft | 475 kts | 277° |
| 2026-05-07 11:58 | 12.70688 | 83.08892 | 33746 ft | 475 kts | 277° |
| 2026-05-07 11:59 | 12.71365 | 83.02189 | 33746 ft | 475 kts | 277° |
| 2026-05-07 11:59 | 12.72039 | 82.95494 | 33746 ft | 476 kts | 277° |
| 2026-05-07 12:00 | 12.72718 | 82.88745 | 33746 ft | 477 kts | 277° |
| 2026-05-07 12:00 | 12.73397 | 82.82018 | 33746 ft | 479 kts | 277° |
| 2026-05-07 12:01 | 12.74081 | 82.75197 | 33746 ft | 480 kts | 277° |
| 2026-05-07 12:01 | 12.74755 | 82.68446 | 33746 ft | 480 kts | 277° |
| 2026-05-07 12:02 | 12.75430 | 82.61671 | 33746 ft | 480 kts | 277° |
| 2026-05-07 12:02 | 12.76104 | 82.54868 | 33746 ft | 480 kts | 277° |
| 2026-05-07 12:03 | 12.76774 | 82.48092 | 33746 ft | 479 kts | 277° |
| 2026-05-07 12:03 | 12.77443 | 82.41320 | 33746 ft | 480 kts | 277° |
| 2026-05-07 12:04 | 12.78108 | 82.34558 | 33748 ft | 479 kts | 277° |
| 2026-05-07 12:04 | 12.78782 | 82.27701 | 33769 ft | 479 kts | 277° |
| 2026-05-07 12:05 | 12.79446 | 82.20917 | 33787 ft | 479 kts | 277° |
| 2026-05-07 12:05 | 12.80104 | 82.14172 | 33795 ft | 479 kts | 277° |
| 2026-05-07 12:06 | 12.80766 | 82.07378 | 33798 ft | 479 kts | 277° |
| 2026-05-07 12:06 | 12.81423 | 82.00608 | 33799 ft | 479 kts | 277° |
| 2026-05-07 12:07 | 12.82078 | 81.93848 | 33799 ft | 479 kts | 277° |
| 2026-05-07 12:07 | 12.82732 | 81.87075 | 33800 ft | 479 kts | 277° |
| 2026-05-07 12:08 | 12.83385 | 81.80296 | 33800 ft | 479 kts | 277° |
| 2026-05-07 12:08 | 12.84037 | 81.73520 | 33799 ft | 479 kts | 277° |
| 2026-05-07 12:09 | 12.84684 | 81.66755 | 33799 ft | 479 kts | 277° |
| 2026-05-07 12:09 | 12.85329 | 81.60002 | 33800 ft | 478 kts | 277° |
| 2026-05-07 12:10 | 12.85973 | 81.53247 | 33800 ft | 478 kts | 277° |
| 2026-05-07 12:10 | 12.86618 | 81.46462 | 33799 ft | 478 kts | 277° |
| 2026-05-07 12:11 | 12.87257 | 81.39718 | 33799 ft | 478 kts | 277° |
| 2026-05-07 12:11 | 12.87899 | 81.32922 | 33798 ft | 478 kts | 277° |
| 2026-05-07 12:12 | 12.88537 | 81.26154 | 33800 ft | 478 kts | 277° |
| 2026-05-07 12:12 | 12.89174 | 81.19392 | 33800 ft | 478 kts | 277° |
| 2026-05-07 12:13 | 12.89808 | 81.12621 | 33800 ft | 478 kts | 277° |
| 2026-05-07 12:13 | 12.90441 | 81.05858 | 33800 ft | 478 kts | 277° |
| 2026-05-07 12:14 | 12.91072 | 80.99093 | 33799 ft | 478 kts | 276° |
| 2026-05-07 12:14 | 12.91701 | 80.92325 | 33800 ft | 478 kts | 276° |
| 2026-05-07 12:15 | 12.92330 | 80.85542 | 33800 ft | 478 kts | 276° |
| 2026-05-07 12:15 | 12.92954 | 80.78783 | 33800 ft | 478 kts | 276° |
| 2026-05-07 12:16 | 12.93576 | 80.72032 | 33800 ft | 478 kts | 276° |
| 2026-05-07 12:16 | 12.94198 | 80.65266 | 33799 ft | 478 kts | 276° |
| 2026-05-07 12:17 | 12.94821 | 80.58471 | 33799 ft | 478 kts | 276° |
| 2026-05-07 12:17 | 12.95440 | 80.51705 | 33799 ft | 478 kts | 276° |
| 2026-05-07 12:18 | 12.96058 | 80.44939 | 33799 ft | 478 kts | 276° |
| 2026-05-07 12:18 | 12.96672 | 80.38200 | 33799 ft | 478 kts | 276° |
| 2026-05-07 12:19 | 12.97291 | 80.31410 | 33799 ft | 478 kts | 276° |
| 2026-05-07 12:19 | 12.97903 | 80.24680 | 33785 ft | 478 kts | 276° |
| 2026-05-07 12:20 | 12.98558 | 80.17890 | 33764 ft | 477 kts | 278° |
| 2026-05-07 12:20 | 12.99760 | 80.11250 | 33754 ft | 476 kts | 285° |
| 2026-05-07 12:21 | 13.01396 | 80.04686 | 33758 ft | 476 kts | 286° |
| 2026-05-07 12:21 | 13.03055 | 79.98126 | 33776 ft | 475 kts | 285° |
| 2026-05-07 12:22 | 13.04683 | 79.91637 | 33807 ft | 474 kts | 285° |
| 2026-05-07 12:22 | 13.06278 | 79.85251 | 33845 ft | 474 kts | 285° |
| 2026-05-07 12:23 | 13.07909 | 79.78706 | 33888 ft | 473 kts | 285° |
| 2026-05-07 12:23 | 13.09526 | 79.72209 | 33930 ft | 472 kts | 285° |
| 2026-05-07 12:24 | 13.11130 | 79.65762 | 33960 ft | 472 kts | 285° |
| 2026-05-07 12:24 | 13.12746 | 79.59255 | 33981 ft | 471 kts | 285° |
| 2026-05-07 12:25 | 13.14350 | 79.52783 | 33992 ft | 471 kts | 285° |
| 2026-05-07 12:25 | 13.15959 | 79.46291 | 33997 ft | 471 kts | 285° |
| 2026-05-07 12:26 | 13.17565 | 79.39801 | 33996 ft | 471 kts | 285° |
| 2026-05-07 12:26 | 13.19185 | 79.33250 | 33989 ft | 471 kts | 285° |
| 2026-05-07 12:27 | 13.20783 | 79.26781 | 33970 ft | 471 kts | 285° |
| 2026-05-07 12:27 | 13.22396 | 79.20248 | 33937 ft | 472 kts | 285° |
| 2026-05-07 12:28 | 13.24001 | 79.13742 | 33903 ft | 472 kts | 285° |
| 2026-05-07 12:28 | 13.25606 | 79.07230 | 33867 ft | 473 kts | 285° |
| 2026-05-07 12:29 | 13.27206 | 79.00729 | 33816 ft | 470 kts | 285° |
| 2026-05-07 12:29 | 13.27947 | 78.97475 | 33526 ft | 466 kts | 282° |
| 2026-05-07 12:29 | 13.28496 | 78.94196 | 32936 ft | 465 kts | 278° |
| 2026-05-07 12:29 | 13.28829 | 78.90938 | 32334 ft | 464 kts | 275° |
| 2026-05-07 12:30 | 13.28958 | 78.87633 | 31717 ft | 464 kts | 271° |
| 2026-05-07 12:30 | 13.28879 | 78.84345 | 31022 ft | 465 kts | 267° |
| 2026-05-07 12:30 | 13.28655 | 78.81030 | 30269 ft | 466 kts | 266° |
| 2026-05-07 12:30 | 13.28406 | 78.77731 | 29553 ft | 467 kts | 266° |
| 2026-05-07 12:31 | 13.28157 | 78.74448 | 29055 ft | 462 kts | 266° |
| 2026-05-07 12:31 | 13.27912 | 78.71169 | 28561 ft | 457 kts | 266° |
| 2026-05-07 12:31 | 13.27675 | 78.67926 | 28030 ft | 453 kts | 266° |
| 2026-05-07 12:31 | 13.27446 | 78.64768 | 27501 ft | 449 kts | 266° |
| 2026-05-07 12:32 | 13.27216 | 78.61566 | 26967 ft | 445 kts | 267° |
| 2026-05-07 12:32 | 13.26992 | 78.58443 | 26445 ft | 442 kts | 267° |
| 2026-05-07 12:32 | 13.26764 | 78.55293 | 25920 ft | 438 kts | 267° |
| 2026-05-07 12:32 | 13.26604 | 78.53078 | 25551 ft | 436 kts | 267° |
| 2026-05-07 12:33 | 13.26375 | 78.46161 | 24395 ft | 427 kts | 274° |
| 2026-05-07 12:33 | 13.26636 | 78.43173 | 23894 ft | 422 kts | 279° |
| 2026-05-07 12:33 | 13.27077 | 78.40231 | 23399 ft | 419 kts | 281° |
| 2026-05-07 12:34 | 13.27565 | 78.37276 | 22902 ft | 415 kts | 281° |
| 2026-05-07 12:34 | 13.28043 | 78.34396 | 22415 ft | 412 kts | 281° |
| 2026-05-07 12:34 | 13.28518 | 78.31503 | 21917 ft | 409 kts | 281° |
| 2026-05-07 12:34 | 13.28978 | 78.28648 | 21424 ft | 406 kts | 281° |
| 2026-05-07 12:35 | 13.29434 | 78.25800 | 20928 ft | 403 kts | 281° |
| 2026-05-07 12:35 | 13.29876 | 78.23015 | 20442 ft | 400 kts | 280° |
| 2026-05-07 12:35 | 13.30226 | 78.20166 | 19940 ft | 397 kts | 276° |
| 2026-05-07 12:35 | 13.30395 | 78.17362 | 19451 ft | 395 kts | 273° |
| 2026-05-07 12:36 | 13.30447 | 78.14590 | 18968 ft | 392 kts | 272° |
| 2026-05-07 12:36 | 13.30482 | 78.11813 | 18480 ft | 389 kts | 272° |
| 2026-05-07 12:36 | 13.30516 | 78.09020 | 17986 ft | 386 kts | 272° |
| 2026-05-07 12:36 | 13.30551 | 78.06317 | 17507 ft | 383 kts | 272° |
| 2026-05-07 12:37 | 13.30588 | 78.03571 | 17018 ft | 380 kts | 272° |
| 2026-05-07 12:37 | 13.30625 | 78.00887 | 16536 ft | 377 kts | 272° |
| 2026-05-07 12:37 | 13.30663 | 77.98212 | 16053 ft | 375 kts | 272° |
| 2026-05-07 12:37 | 13.30699 | 77.95570 | 15574 ft | 372 kts | 272° |
| 2026-05-07 12:38 | 13.30732 | 77.92937 | 15275 ft | 363 kts | 272° |
| 2026-05-07 12:38 | 13.30763 | 77.90385 | 15083 ft | 352 kts | 272° |
| 2026-05-07 12:38 | 13.30795 | 77.87891 | 14892 ft | 342 kts | 272° |
| 2026-05-07 12:38 | 13.30828 | 77.85512 | 14708 ft | 331 kts | 272° |
| 2026-05-07 12:39 | 13.30861 | 77.83178 | 14524 ft | 321 kts | 272° |
| 2026-05-07 12:39 | 13.30892 | 77.80911 | 14345 ft | 312 kts | 272° |
| 2026-05-07 12:39 | 13.30922 | 77.78745 | 14169 ft | 302 kts | 272° |
| 2026-05-07 12:39 | 13.30947 | 77.76617 | 13987 ft | 293 kts | 272° |
| 2026-05-07 12:40 | 13.30966 | 77.74547 | 13698 ft | 289 kts | 272° |
| 2026-05-07 12:40 | 13.30983 | 77.72496 | 13327 ft | 287 kts | 272° |
| 2026-05-07 12:40 | 13.31000 | 77.70463 | 12958 ft | 286 kts | 272° |
| 2026-05-07 12:40 | 13.31017 | 77.68430 | 12593 ft | 284 kts | 272° |
| 2026-05-07 12:41 | 13.31032 | 77.66426 | 12233 ft | 282 kts | 272° |
| 2026-05-07 12:41 | 13.31047 | 77.64401 | 11868 ft | 281 kts | 272° |
| 2026-05-07 12:41 | 13.31062 | 77.62414 | 11501 ft | 279 kts | 272° |
| 2026-05-07 12:41 | 13.31077 | 77.60420 | 11124 ft | 279 kts | 272° |
| 2026-05-07 12:42 | 13.31093 | 77.58438 | 10750 ft | 278 kts | 272° |
| 2026-05-07 12:42 | 13.31109 | 77.56481 | 10382 ft | 277 kts | 272° |
| 2026-05-07 12:42 | 13.31124 | 77.54497 | 10010 ft | 276 kts | 271° |
| 2026-05-07 12:42 | 13.31139 | 77.52537 | 9672 ft | 273 kts | 272° |
| 2026-05-07 12:43 | 13.31155 | 77.50621 | 9499 ft | 264 kts | 271° |
| 2026-05-07 12:43 | 13.31166 | 77.48779 | 9285 ft | 257 kts | 270° |
| 2026-05-07 12:43 | 13.30807 | 77.47002 | 8906 ft | 257 kts | 240° |
| 2026-05-07 12:43 | 13.29602 | 77.45678 | 8506 ft | 255 kts | 208° |
| 2026-05-07 12:44 | 13.27947 | 77.45116 | 8158 ft | 251 kts | 189° |
| 2026-05-07 12:44 | 13.26245 | 77.44818 | 7822 ft | 250 kts | 188° |
| 2026-05-07 12:44 | 13.24538 | 77.44534 | 7541 ft | 244 kts | 186° |
| 2026-05-07 12:44 | 13.22970 | 77.44680 | 7512 ft | 218 kts | 156° |
| 2026-05-07 12:45 | 13.21847 | 77.45599 | 7340 ft | 204 kts | 122° |
| 2026-05-07 12:45 | 13.21250 | 77.46901 | 7093 ft | 201 kts | 106° |
| 2026-05-07 12:45 | 13.20971 | 77.48296 | 6837 ft | 199 kts | 96° |
| 2026-05-07 12:45 | 13.20889 | 77.49695 | 6586 ft | 198 kts | 91° |
| 2026-05-07 12:46 | 13.20876 | 77.51117 | 6328 ft | 197 kts | 90° |
| 2026-05-07 12:46 | 13.20873 | 77.52525 | 6070 ft | 197 kts | 90° |
| 2026-05-07 12:46 | 13.20866 | 77.53928 | 5810 ft | 196 kts | 90° |
| 2026-05-07 12:46 | 13.20853 | 77.55306 | 5552 ft | 195 kts | 91° |
| 2026-05-07 12:47 | 13.20840 | 77.56448 | 5338 ft | 195 kts | 91° |
| 2026-05-07 12:47 | 13.20822 | 77.58047 | 5035 ft | 192 kts | 91° |
| 2026-05-07 12:47 | 13.20808 | 77.59270 | 4829 ft | 175 kts | 91° |
| 2026-05-07 12:47 | 13.20796 | 77.60483 | 4567 ft | 159 kts | 91° |
| 2026-05-07 12:48 | 13.20784 | 77.61613 | 4350 ft | 156 kts | 91° |
| 2026-05-07 12:48 | 13.20773 | 77.62709 | 4150 ft | 155 kts | 91° |
| 2026-05-07 12:48 | 13.20762 | 77.63821 | 3944 ft | 155 kts | 91° |
| 2026-05-07 12:48 | 13.20754 | 77.64773 | 3752 ft | 154 kts | 91° |
| 2026-05-07 12:49 | 13.20748 | 77.65991 | 3513 ft | 154 kts | 91° |
| 2026-05-07 12:49 | 13.20732 | 77.67080 | 3328 ft | 153 kts | 92° |
| 2026-05-07 12:49 | 13.20722 | 77.68176 | 3112 ft | 152 kts | 91° |
| 2026-05-07 12:49 | 13.20712 | 77.69228 | 3008 ft | 139 kts | 90° |
| 2026-05-07 12:50 | 13.20703 | 77.70042 | 2995 ft | 89 kts | 91° |
| 2026-05-07 12:50 | 13.20699 | 77.70522 | 2982 ft | 57 kts | 92° |
| 2026-05-07 12:50 | 13.20678 | 77.70892 | 2960 ft | 48 kts | 109° |
| 2026-05-07 12:50 | 13.20557 | 77.71120 | 2949 ft | 19 kts | 125° |
| 2026-05-07 12:51 | 13.20491 | 77.71172 | 2949 ft | 10 kts | 171° |
| 2026-05-07 12:51 | 13.20451 | 77.71175 | 2951 ft | 2 kts | 180° |
| 2026-05-07 12:51 | 13.20447 | 77.71175 | 2951 ft | 0 kts | 180° |
| 2026-05-07 12:51 | 13.20444 | 77.71175 | 2951 ft | 0 kts | 180° |
| 2026-05-07 12:52 | 13.20441 | 77.71175 | 2951 ft | 0 kts | 180° |
| 2026-05-07 12:52 | 13.20423 | 77.71175 | 2952 ft | 5 kts | 180° |
| 2026-05-07 12:52 | 13.20401 | 77.71175 | 2954 ft | 1 kts | 180° |
| 2026-05-07 12:52 | 13.20372 | 77.71175 | 2956 ft | 5 kts | 180° |
| 2026-05-07 12:53 | 13.20351 | 77.71175 | 2957 ft | 1 kts | 180° |
| 2026-05-07 12:53 | 13.20338 | 77.71175 | 2957 ft | 2 kts | 180° |
| 2026-05-07 12:53 | 13.20306 | 77.71175 | 2959 ft | 5 kts | 180° |
| 2026-05-07 12:53 | 13.20263 | 77.71177 | 2961 ft | 8 kts | 175° |
| 2026-05-07 12:54 | 13.20211 | 77.71179 | 2963 ft | 5 kts | 180° |
| 2026-05-07 12:54 | 13.20185 | 77.71180 | 2964 ft | 2 kts | 179° |
| 2026-05-07 12:54 | 13.20183 | 77.71180 | 2964 ft | 0 kts | 179° |